createdAt,value
2018-12-13T00:00:03.121Z,1036.43795989
2018-12-13T00:00:15.673Z,1036.43795989
2018-12-13T00:00:28.031Z,1036.43795989
2018-12-13T00:00:40.403Z,1036.43795989
2018-12-13T00:00:52.869Z,1036.43795989
2018-12-13T00:01:05.233Z,1036.33636824
2018-12-13T00:01:17.622Z,1036.33636824
2018-12-13T00:01:29.984Z,1036.33636824
2018-12-13T00:01:42.512Z,1036.33636824
2018-12-13T00:01:54.856Z,1036.33636824
2018-12-13T00:02:07.220Z,1036.40409601
2018-12-13T00:02:19.593Z,1036.40409601
2018-12-13T00:02:31.945Z,1036.40409601
2018-12-13T00:02:44.432Z,1036.40409601
2018-12-13T00:02:58.223Z,1036.40409601
2018-12-13T00:03:10.626Z,1036.40409601
2018-12-13T00:03:22.987Z,1036.40409601
2018-12-13T00:03:35.332Z,1036.40409601
2018-12-13T00:03:47.674Z,1036.40409601
2018-12-13T00:04:00.022Z,1036.40409601
2018-12-13T00:04:12.387Z,1036.30250436
2018-12-13T00:04:24.749Z,1036.30250436
2018-12-13T00:04:37.092Z,1036.30250436
2018-12-13T00:04:49.454Z,1036.30250436
2018-12-13T00:05:01.803Z,1036.33636824
2018-12-13T00:05:14.173Z,1036.33636824
2018-12-13T00:05:26.594Z,1036.33636824
2018-12-13T00:05:38.954Z,1036.33636824
2018-12-13T00:05:51.309Z,1036.33636824
2018-12-13T00:06:03.664Z,1036.43795989
2018-12-13T00:06:16.033Z,1036.43795989
2018-12-13T00:06:34.458Z,1036.43795989
2018-12-13T00:06:46.869Z,1036.43795989
2018-12-13T00:06:59.255Z,1036.43795989
2018-12-13T00:07:11.586Z,1036.30250436
2018-12-13T00:07:23.948Z,1036.30250436
2018-12-13T00:07:36.299Z,1036.30250436
2018-12-13T00:07:48.653Z,1036.30250436
2018-12-13T00:08:01.009Z,1036.33636824
2018-12-13T00:08:13.371Z,1036.33636824
2018-12-13T00:08:25.735Z,1036.33636824
2018-12-13T00:08:38.095Z,1036.33636824
2018-12-13T00:08:50.487Z,1036.33636824
2018-12-13T00:09:02.836Z,1036.33636824
2018-12-13T00:09:15.245Z,1036.33636824
2018-12-13T00:09:27.577Z,1036.33636824
2018-12-13T00:09:40.054Z,1036.33636824
2018-12-13T00:09:52.403Z,1036.33636824
2018-12-13T00:10:04.757Z,1036.20091272
2018-12-13T00:10:17.108Z,1036.20091272
2018-12-13T00:10:29.788Z,1036.20091272
2018-12-13T00:10:42.154Z,1036.20091272
2018-12-13T00:10:54.500Z,1036.20091272
2018-12-13T00:11:06.848Z,1036.30250436
2018-12-13T00:11:19.204Z,1036.30250436
2018-12-13T00:11:31.621Z,1036.30250436
2018-12-13T00:11:44.019Z,1036.30250436
2018-12-13T00:11:56.352Z,1036.30250436
2018-12-13T00:12:08.741Z,1036.33636824
2018-12-13T00:12:21.075Z,1036.33636824
2018-12-13T00:12:33.406Z,1036.33636824
2018-12-13T00:12:45.760Z,1036.33636824
2018-12-13T00:12:58.116Z,1036.33636824
2018-12-13T00:13:10.481Z,1036.30250436
2018-12-13T00:13:22.836Z,1036.30250436
2018-12-13T00:13:35.168Z,1036.30250436
2018-12-13T00:13:47.565Z,1036.30250436
2018-12-13T00:13:59.906Z,1036.30250436
2018-12-13T00:14:12.455Z,1036.2347766
2018-12-13T00:14:24.789Z,1036.2347766
2018-12-13T00:14:37.135Z,1036.2347766
2018-12-13T00:14:49.477Z,1036.2347766
2018-12-13T00:15:01.821Z,1036.30250436
2018-12-13T00:15:14.180Z,1036.30250436
2018-12-13T00:15:26.527Z,1036.30250436
2018-12-13T00:15:38.878Z,1036.30250436
2018-12-13T00:15:51.223Z,1036.30250436
2018-12-13T00:16:03.701Z,1036.30250436
2018-12-13T00:16:16.066Z,1036.30250436
2018-12-13T00:16:28.419Z,1036.30250436
2018-12-13T00:16:41.849Z,1036.30250436
2018-12-13T00:16:54.192Z,1036.30250436
2018-12-13T00:17:06.552Z,1036.2347766
2018-12-13T00:17:18.975Z,1036.2347766
2018-12-13T00:17:31.337Z,1036.2347766
2018-12-13T00:17:43.734Z,1036.2347766
2018-12-13T00:17:56.073Z,1036.2347766
2018-12-13T00:18:08.428Z,1036.26864048
2018-12-13T00:18:20.920Z,1036.26864048
2018-12-13T00:18:33.267Z,1036.26864048
2018-12-13T00:18:45.760Z,1036.26864048
2018-12-13T00:18:58.104Z,1036.26864048
2018-12-13T00:19:10.459Z,1036.2347766
2018-12-13T00:19:22.816Z,1036.2347766
2018-12-13T00:19:35.162Z,1036.2347766
2018-12-13T00:19:47.560Z,1036.2347766
2018-12-13T00:19:59.985Z,1036.2347766
2018-12-13T00:20:12.344Z,1036.20091272
2018-12-13T00:20:24.684Z,1036.20091272
2018-12-13T00:20:37.038Z,1036.20091272
2018-12-13T00:20:49.425Z,1036.20091272
2018-12-13T00:21:01.782Z,1036.2347766
2018-12-13T00:21:14.132Z,1036.2347766
2018-12-13T00:21:26.466Z,1036.2347766
2018-12-13T00:21:39.032Z,1036.2347766
2018-12-13T00:21:51.389Z,1036.2347766
2018-12-13T00:22:03.736Z,1036.20091272
2018-12-13T00:22:16.130Z,1036.20091272
2018-12-13T00:22:28.458Z,1036.20091272
2018-12-13T00:22:40.804Z,1036.20091272
2018-12-13T00:22:53.160Z,1036.20091272
2018-12-13T00:23:05.500Z,1036.20091272
2018-12-13T00:23:17.899Z,1036.20091272
2018-12-13T00:23:30.242Z,1036.20091272
2018-12-13T00:23:42.593Z,1036.20091272
2018-12-13T00:23:54.935Z,1036.20091272
2018-12-13T00:24:07.279Z,1036.2347766
2018-12-13T00:24:19.641Z,1036.2347766
2018-12-13T00:24:31.983Z,1036.2347766
2018-12-13T00:24:44.320Z,1036.2347766
2018-12-13T00:24:56.656Z,1036.2347766
2018-12-13T00:25:09.024Z,1036.2347766
2018-12-13T00:25:21.392Z,1036.2347766
2018-12-13T00:25:33.739Z,1036.2347766
2018-12-13T00:25:46.092Z,1036.2347766
2018-12-13T00:25:58.490Z,1036.2347766
2018-12-13T00:26:10.833Z,1036.2347766
2018-12-13T00:26:23.396Z,1036.2347766
2018-12-13T00:26:35.753Z,1036.2347766
2018-12-13T00:26:48.106Z,1036.2347766
2018-12-13T00:27:00.454Z,1036.2347766
2018-12-13T00:27:12.792Z,1036.2347766
2018-12-13T00:27:25.132Z,1036.2347766
2018-12-13T00:27:37.465Z,1036.2347766
2018-12-13T00:27:49.816Z,1036.2347766
2018-12-13T00:28:02.174Z,1036.26864048
2018-12-13T00:28:14.558Z,1036.26864048
2018-12-13T00:28:26.961Z,1036.26864048
2018-12-13T00:28:39.294Z,1036.26864048
2018-12-13T00:28:51.678Z,1036.26864048
2018-12-13T00:29:04.097Z,1036.33636824
2018-12-13T00:29:16.579Z,1036.33636824
2018-12-13T00:29:28.906Z,1036.33636824
2018-12-13T00:29:41.254Z,1036.33636824
2018-12-13T00:29:53.794Z,1036.33636824
2018-12-13T00:30:06.121Z,1036.26864048
2018-12-13T00:30:18.516Z,1036.26864048
2018-12-13T00:30:30.917Z,1036.26864048
2018-12-13T00:30:43.502Z,1036.26864048
2018-12-13T00:30:55.862Z,1036.26864048
2018-12-13T00:31:08.219Z,1036.26864048
2018-12-13T00:31:20.752Z,1036.26864048
2018-12-13T00:31:33.107Z,1036.26864048
2018-12-13T00:31:45.453Z,1036.26864048
2018-12-13T00:31:57.787Z,1036.26864048
2018-12-13T00:32:10.158Z,1036.26864048
2018-12-13T00:32:22.513Z,1036.26864048
2018-12-13T00:32:34.874Z,1036.26864048
2018-12-13T00:32:47.221Z,1036.26864048
2018-12-13T00:32:59.574Z,1036.26864048
2018-12-13T00:33:12.173Z,1036.26864048
2018-12-13T00:33:24.543Z,1036.26864048
2018-12-13T00:33:36.899Z,1036.26864048
2018-12-13T00:33:49.243Z,1036.26864048
2018-12-13T00:34:01.589Z,1036.26864048
2018-12-13T00:34:13.926Z,1036.26864048
2018-12-13T00:34:26.353Z,1036.26864048
2018-12-13T00:34:38.797Z,1036.26864048
2018-12-13T00:34:51.164Z,1036.26864048
2018-12-13T00:35:03.516Z,1036.2347766
2018-12-13T00:35:15.856Z,1036.2347766
2018-12-13T00:35:28.214Z,1036.2347766
2018-12-13T00:35:40.649Z,1036.2347766
2018-12-13T00:35:53.115Z,1036.2347766
2018-12-13T00:36:05.520Z,1036.33636824
2018-12-13T00:36:17.886Z,1036.33636824
2018-12-13T00:36:30.369Z,1036.33636824
2018-12-13T00:36:48.648Z,1036.33636824
2018-12-13T00:37:01.015Z,1036.26864048
2018-12-13T00:37:13.372Z,1036.26864048
2018-12-13T00:37:25.740Z,1036.26864048
2018-12-13T00:37:38.366Z,1036.26864048
2018-12-13T00:37:50.712Z,1036.26864048
2018-12-13T00:38:03.161Z,1036.30250436
2018-12-13T00:38:15.534Z,1036.30250436
2018-12-13T00:38:27.902Z,1036.30250436
2018-12-13T00:38:41.488Z,1036.30250436
2018-12-13T00:38:53.866Z,1036.30250436
2018-12-13T00:39:06.230Z,1036.26864048
2018-12-13T00:39:18.589Z,1036.26864048
2018-12-13T00:39:30.971Z,1036.26864048
2018-12-13T00:39:43.377Z,1036.26864048
2018-12-13T00:39:55.811Z,1036.26864048
2018-12-13T00:40:08.165Z,1036.26864048
2018-12-13T00:40:20.514Z,1036.26864048
2018-12-13T00:40:32.894Z,1036.26864048
2018-12-13T00:40:45.257Z,1036.26864048
2018-12-13T00:40:58.815Z,1036.26864048
2018-12-13T00:41:11.226Z,1036.26864048
2018-12-13T00:41:23.581Z,1036.26864048
2018-12-13T00:41:35.910Z,1036.26864048
2018-12-13T00:41:48.260Z,1036.26864048
2018-12-13T00:42:00.686Z,1036.30250436
2018-12-13T00:42:13.075Z,1036.30250436
2018-12-13T00:42:25.423Z,1036.30250436
2018-12-13T00:42:37.765Z,1036.30250436
2018-12-13T00:42:50.106Z,1036.30250436
2018-12-13T00:43:02.465Z,1036.30250436
2018-12-13T00:43:14.816Z,1036.30250436
2018-12-13T00:43:27.158Z,1036.30250436
2018-12-13T00:43:39.511Z,1036.30250436
2018-12-13T00:43:51.857Z,1036.30250436
2018-12-13T00:44:04.206Z,1036.26864048
2018-12-13T00:44:16.557Z,1036.26864048
2018-12-13T00:44:28.904Z,1036.26864048
2018-12-13T00:44:41.253Z,1036.26864048
2018-12-13T00:44:53.598Z,1036.26864048
2018-12-13T00:45:05.966Z,1036.30250436
2018-12-13T00:45:18.307Z,1036.30250436
2018-12-13T00:45:30.754Z,1036.30250436
2018-12-13T00:45:43.107Z,1036.30250436
2018-12-13T00:45:55.456Z,1036.30250436
2018-12-13T00:46:07.792Z,1036.2347766
2018-12-13T00:46:20.139Z,1036.2347766
2018-12-13T00:46:32.473Z,1036.2347766
2018-12-13T00:46:44.825Z,1036.2347766
2018-12-13T00:46:57.177Z,1036.2347766
2018-12-13T00:47:09.531Z,1036.26864048
2018-12-13T00:47:21.890Z,1036.26864048
2018-12-13T00:47:34.421Z,1036.26864048
2018-12-13T00:47:46.765Z,1036.26864048
2018-12-13T00:47:59.109Z,1036.26864048
2018-12-13T00:48:11.447Z,1036.30250436
2018-12-13T00:48:23.799Z,1036.30250436
2018-12-13T00:48:36.154Z,1036.30250436
2018-12-13T00:48:48.511Z,1036.30250436
2018-12-13T00:49:00.850Z,1036.30250436
2018-12-13T00:49:13.260Z,1036.30250436
2018-12-13T00:49:25.648Z,1036.30250436
2018-12-13T00:49:37.988Z,1036.30250436
2018-12-13T00:49:50.327Z,1036.30250436
2018-12-13T00:50:02.842Z,1036.26864048
2018-12-13T00:50:15.182Z,1036.26864048
2018-12-13T00:50:27.533Z,1036.26864048
2018-12-13T00:50:39.889Z,1036.26864048
2018-12-13T00:50:52.235Z,1036.26864048
2018-12-13T00:51:04.578Z,1036.2347766
2018-12-13T00:51:16.932Z,1036.2347766
2018-12-13T00:51:29.270Z,1036.2347766
2018-12-13T00:51:41.623Z,1036.2347766
2018-12-13T00:51:53.978Z,1036.2347766
2018-12-13T00:52:06.480Z,1036.30250436
2018-12-13T00:52:18.819Z,1036.30250436
2018-12-13T00:52:31.150Z,1036.30250436
2018-12-13T00:52:43.489Z,1036.30250436
2018-12-13T00:52:55.822Z,1036.30250436
2018-12-13T00:53:08.148Z,1036.26864048
2018-12-13T00:53:20.498Z,1036.26864048
2018-12-13T00:53:32.830Z,1036.26864048
2018-12-13T00:53:45.184Z,1036.26864048
2018-12-13T00:53:57.538Z,1036.26864048
2018-12-13T00:54:10.036Z,1036.30250436
2018-12-13T00:54:22.384Z,1036.30250436
2018-12-13T00:54:34.732Z,1036.30250436
2018-12-13T00:54:47.119Z,1036.30250436
2018-12-13T00:54:59.611Z,1036.30250436
2018-12-13T00:55:11.967Z,1036.20091272
2018-12-13T00:55:24.388Z,1036.20091272
2018-12-13T00:55:36.749Z,1036.20091272
2018-12-13T00:55:49.092Z,1036.20091272
2018-12-13T00:56:01.442Z,1036.26864048
2018-12-13T00:56:13.780Z,1036.26864048
2018-12-13T00:56:26.113Z,1036.26864048
2018-12-13T00:56:38.614Z,1036.26864048
2018-12-13T00:56:51.287Z,1036.26864048
2018-12-13T00:57:03.637Z,1036.30250436
2018-12-13T00:57:15.987Z,1036.30250436
2018-12-13T00:57:28.328Z,1036.30250436
2018-12-13T00:57:40.742Z,1036.30250436
2018-12-13T00:57:53.074Z,1036.30250436
2018-12-13T00:58:05.443Z,1036.20091272
2018-12-13T00:58:17.788Z,1036.20091272
2018-12-13T00:58:30.128Z,1036.20091272
2018-12-13T00:58:42.487Z,1036.20091272
2018-12-13T00:58:55.093Z,1036.20091272
2018-12-13T00:59:07.431Z,1036.26864048
2018-12-13T00:59:19.789Z,1036.26864048
2018-12-13T00:59:32.141Z,1036.26864048
2018-12-13T00:59:44.483Z,1036.26864048
2018-12-13T00:59:56.846Z,1036.26864048
2018-12-13T01:00:09.219Z,1036.20091272
2018-12-13T01:00:21.617Z,1036.20091272
2018-12-13T01:00:33.975Z,1036.20091272
2018-12-13T01:00:46.337Z,1036.20091272
2018-12-13T01:00:58.690Z,1036.20091272
2018-12-13T01:01:11.042Z,1036.2347766
2018-12-13T01:01:23.400Z,1036.2347766
2018-12-13T01:01:35.904Z,1036.2347766
2018-12-13T01:01:48.258Z,1036.2347766
2018-12-13T01:02:00.607Z,1036.2347766
2018-12-13T01:02:12.979Z,1036.20091272
2018-12-13T01:02:25.324Z,1036.20091272
2018-12-13T01:02:37.663Z,1036.20091272
2018-12-13T01:02:50.101Z,1036.20091272
2018-12-13T01:03:02.455Z,1036.20091272
2018-12-13T01:03:14.838Z,1036.20091272
2018-12-13T01:03:27.232Z,1036.20091272
2018-12-13T01:03:39.645Z,1036.20091272
2018-12-13T01:03:52.013Z,1036.20091272
2018-12-13T01:04:04.902Z,1036.2347766
2018-12-13T01:04:17.261Z,1036.2347766
2018-12-13T01:04:29.635Z,1036.2347766
2018-12-13T01:04:41.994Z,1036.2347766
2018-12-13T01:04:54.332Z,1036.2347766
2018-12-13T01:05:06.660Z,1036.26864048
2018-12-13T01:05:19.019Z,1036.26864048
2018-12-13T01:05:31.479Z,1036.26864048
2018-12-13T01:05:44.158Z,1036.26864048
2018-12-13T01:05:56.612Z,1036.26864048
2018-12-13T01:06:09.074Z,1036.2347766
2018-12-13T01:06:21.424Z,1036.2347766
2018-12-13T01:06:33.776Z,1036.2347766
2018-12-13T01:06:51.719Z,1036.2347766
2018-12-13T01:07:04.061Z,1036.26864048
2018-12-13T01:07:16.481Z,1036.26864048
2018-12-13T01:07:28.841Z,1036.26864048
2018-12-13T01:07:41.186Z,1036.26864048
2018-12-13T01:07:53.597Z,1036.26864048
2018-12-13T01:08:05.924Z,1036.37023212
2018-12-13T01:08:18.305Z,1036.37023212
2018-12-13T01:08:30.662Z,1036.37023212
2018-12-13T01:08:43.016Z,1036.37023212
2018-12-13T01:08:55.357Z,1036.37023212
2018-12-13T01:09:07.700Z,1036.30250436
2018-12-13T01:09:20.052Z,1036.30250436
2018-12-13T01:09:32.424Z,1036.30250436
2018-12-13T01:09:44.767Z,1036.30250436
2018-12-13T01:09:57.201Z,1036.30250436
2018-12-13T01:10:09.554Z,1036.30250436
2018-12-13T01:10:21.891Z,1036.30250436
2018-12-13T01:10:34.233Z,1036.30250436
2018-12-13T01:10:48.027Z,1036.30250436
2018-12-13T01:11:00.388Z,1036.30250436
2018-12-13T01:11:12.735Z,1036.37023212
2018-12-13T01:11:25.083Z,1036.37023212
2018-12-13T01:11:37.436Z,1036.37023212
2018-12-13T01:11:49.800Z,1036.37023212
2018-12-13T01:12:02.229Z,1036.26864048
2018-12-13T01:12:14.583Z,1036.26864048
2018-12-13T01:12:26.923Z,1036.26864048
2018-12-13T01:12:39.282Z,1036.26864048
2018-12-13T01:12:51.646Z,1036.26864048
2018-12-13T01:13:04.030Z,1036.20091272
2018-12-13T01:13:16.430Z,1036.20091272
2018-12-13T01:13:28.791Z,1036.20091272
2018-12-13T01:13:41.164Z,1036.20091272
2018-12-13T01:13:53.517Z,1036.20091272
2018-12-13T01:14:05.911Z,1036.30250436
2018-12-13T01:14:18.430Z,1036.30250436
2018-12-13T01:14:30.763Z,1036.30250436
2018-12-13T01:14:43.096Z,1036.30250436
2018-12-13T01:14:55.448Z,1036.30250436
2018-12-13T01:15:07.847Z,1036.37023212
2018-12-13T01:15:20.195Z,1036.37023212
2018-12-13T01:15:32.522Z,1036.37023212
2018-12-13T01:15:44.855Z,1036.37023212
2018-12-13T01:15:57.328Z,1036.37023212
2018-12-13T01:16:09.681Z,1036.37023212
2018-12-13T01:16:22.028Z,1036.37023212
2018-12-13T01:16:34.393Z,1036.37023212
2018-12-13T01:16:46.753Z,1036.37023212
2018-12-13T01:16:59.098Z,1036.37023212
2018-12-13T01:17:11.437Z,1036.30250436
2018-12-13T01:17:23.788Z,1036.30250436
2018-12-13T01:17:36.441Z,1036.30250436
2018-12-13T01:17:48.783Z,1036.30250436
2018-12-13T01:18:01.139Z,1036.2347766
2018-12-13T01:18:13.625Z,1036.2347766
2018-12-13T01:18:25.975Z,1036.2347766
2018-12-13T01:18:38.482Z,1036.2347766
2018-12-13T01:18:50.835Z,1036.2347766
2018-12-13T01:19:03.197Z,1036.26864048
2018-12-13T01:19:15.536Z,1036.26864048
2018-12-13T01:19:27.899Z,1036.26864048
2018-12-13T01:19:40.236Z,1036.26864048
2018-12-13T01:19:52.620Z,1036.26864048
2018-12-13T01:20:04.991Z,1036.26864048
2018-12-13T01:20:17.323Z,1036.26864048
2018-12-13T01:20:29.742Z,1036.26864048
2018-12-13T01:20:42.854Z,1036.26864048
2018-12-13T01:20:55.258Z,1036.26864048
2018-12-13T01:21:07.693Z,1036.2347766
2018-12-13T01:21:26.233Z,1036.2347766
2018-12-13T01:21:38.590Z,1036.2347766
2018-12-13T01:21:50.933Z,1036.2347766
2018-12-13T01:22:03.280Z,1036.2347766
2018-12-13T01:22:15.635Z,1036.2347766
2018-12-13T01:22:27.998Z,1036.2347766
2018-12-13T01:22:40.346Z,1036.2347766
2018-12-13T01:22:52.722Z,1036.2347766
2018-12-13T01:23:05.073Z,1036.30250436
2018-12-13T01:23:17.426Z,1036.30250436
2018-12-13T01:23:29.812Z,1036.30250436
2018-12-13T01:23:42.191Z,1036.30250436
2018-12-13T01:23:54.539Z,1036.30250436
2018-12-13T01:24:06.895Z,1036.20091272
2018-12-13T01:24:19.439Z,1036.20091272
2018-12-13T01:24:31.781Z,1036.20091272
2018-12-13T01:24:44.141Z,1036.20091272
2018-12-13T01:24:56.501Z,1036.20091272
2018-12-13T01:25:08.855Z,1036.20091272
2018-12-13T01:25:21.266Z,1036.20091272
2018-12-13T01:25:33.609Z,1036.20091272
2018-12-13T01:25:45.963Z,1036.20091272
2018-12-13T01:25:58.307Z,1036.20091272
2018-12-13T01:26:10.655Z,1036.2347766
2018-12-13T01:26:23.163Z,1036.2347766
2018-12-13T01:26:35.516Z,1036.2347766
2018-12-13T01:26:48.002Z,1036.2347766
2018-12-13T01:27:00.340Z,1036.2347766
2018-12-13T01:27:12.704Z,1036.20091272
2018-12-13T01:27:25.062Z,1036.20091272
2018-12-13T01:27:37.455Z,1036.20091272
2018-12-13T01:27:49.812Z,1036.20091272
2018-12-13T01:28:02.155Z,1036.16704883
2018-12-13T01:28:14.518Z,1036.16704883
2018-12-13T01:28:26.862Z,1036.16704883
2018-12-13T01:28:39.226Z,1036.16704883
2018-12-13T01:28:51.582Z,1036.16704883
2018-12-13T01:29:03.929Z,1036.2347766
2018-12-13T01:29:16.285Z,1036.2347766
2018-12-13T01:29:28.641Z,1036.2347766
2018-12-13T01:29:41.024Z,1036.2347766
2018-12-13T01:29:53.532Z,1036.2347766
2018-12-13T01:30:05.900Z,1036.20091272
2018-12-13T01:30:18.235Z,1036.20091272
2018-12-13T01:30:30.715Z,1036.20091272
2018-12-13T01:30:43.422Z,1036.20091272
2018-12-13T01:30:55.792Z,1036.20091272
2018-12-13T01:31:08.137Z,1036.20091272
2018-12-13T01:31:20.469Z,1036.20091272
2018-12-13T01:31:32.809Z,1036.20091272
2018-12-13T01:31:45.182Z,1036.20091272
2018-12-13T01:31:57.521Z,1036.20091272
2018-12-13T01:32:09.864Z,1036.09932107
2018-12-13T01:32:22.215Z,1036.09932107
2018-12-13T01:32:34.725Z,1036.09932107
2018-12-13T01:32:47.084Z,1036.09932107
2018-12-13T01:32:59.472Z,1036.09932107
2018-12-13T01:33:11.963Z,1036.2347766
2018-12-13T01:33:24.325Z,1036.2347766
2018-12-13T01:33:36.681Z,1036.2347766
2018-12-13T01:33:49.181Z,1036.2347766
2018-12-13T01:34:01.556Z,1036.2347766
2018-12-13T01:34:13.965Z,1036.2347766
2018-12-13T01:34:26.325Z,1036.2347766
2018-12-13T01:34:38.679Z,1036.2347766
2018-12-13T01:34:51.036Z,1036.2347766
2018-12-13T01:35:03.370Z,1036.09932107
2018-12-13T01:35:15.708Z,1036.09932107
2018-12-13T01:35:28.053Z,1036.09932107
2018-12-13T01:35:40.411Z,1036.09932107
2018-12-13T01:35:52.816Z,1036.09932107
2018-12-13T01:36:05.179Z,1036.2347766
2018-12-13T01:36:17.551Z,1036.2347766
2018-12-13T01:36:29.894Z,1036.2347766
2018-12-13T01:36:42.240Z,1036.2347766
2018-12-13T01:37:00.376Z,1036.2347766
2018-12-13T01:37:12.724Z,1036.20091272
2018-12-13T01:37:25.079Z,1036.20091272
2018-12-13T01:37:37.629Z,1036.20091272
2018-12-13T01:37:49.963Z,1036.20091272
2018-12-13T01:38:02.502Z,1036.16704883
2018-12-13T01:38:14.869Z,1036.16704883
2018-12-13T01:38:27.222Z,1036.16704883
2018-12-13T01:38:39.569Z,1036.16704883
2018-12-13T01:38:51.913Z,1036.16704883
2018-12-13T01:39:04.265Z,1036.09932107
2018-12-13T01:39:16.615Z,1036.09932107
2018-12-13T01:39:28.946Z,1036.09932107
2018-12-13T01:39:41.428Z,1036.09932107
2018-12-13T01:39:54.063Z,1036.09932107
2018-12-13T01:40:06.418Z,1036.09932107
2018-12-13T01:40:18.767Z,1036.09932107
2018-12-13T01:40:31.126Z,1036.09932107
2018-12-13T01:40:43.471Z,1036.09932107
2018-12-13T01:40:55.831Z,1036.09932107
2018-12-13T01:41:08.506Z,1035.96386555
2018-12-13T01:41:20.847Z,1035.96386555
2018-12-13T01:41:33.264Z,1035.96386555
2018-12-13T01:41:45.601Z,1035.96386555
2018-12-13T01:41:57.964Z,1035.96386555
2018-12-13T01:42:10.311Z,1036.09932107
2018-12-13T01:42:22.718Z,1036.09932107
2018-12-13T01:42:35.061Z,1036.09932107
2018-12-13T01:42:47.441Z,1036.09932107
2018-12-13T01:42:59.781Z,1036.09932107
2018-12-13T01:43:12.700Z,1036.03159331
2018-12-13T01:43:25.056Z,1036.03159331
2018-12-13T01:43:37.396Z,1036.03159331
2018-12-13T01:43:49.781Z,1036.03159331
2018-12-13T01:44:02.110Z,1036.03159331
2018-12-13T01:44:14.473Z,1036.03159331
2018-12-13T01:44:26.820Z,1036.03159331
2018-12-13T01:44:39.159Z,1036.03159331
2018-12-13T01:44:51.563Z,1036.03159331
2018-12-13T01:45:03.954Z,1036.03159331
2018-12-13T01:45:16.288Z,1036.03159331
2018-12-13T01:45:28.645Z,1036.03159331
2018-12-13T01:45:40.981Z,1036.03159331
2018-12-13T01:45:53.329Z,1036.03159331
2018-12-13T01:46:05.673Z,1036.09932107
2018-12-13T01:46:18.058Z,1036.09932107
2018-12-13T01:46:30.413Z,1036.09932107
2018-12-13T01:46:42.749Z,1036.09932107
2018-12-13T01:46:55.089Z,1036.09932107
2018-12-13T01:47:07.428Z,1036.06545719
2018-12-13T01:47:19.782Z,1036.06545719
2018-12-13T01:47:32.275Z,1036.06545719
2018-12-13T01:47:44.628Z,1036.06545719
2018-12-13T01:47:56.992Z,1036.06545719
2018-12-13T01:48:09.351Z,1036.03159331
2018-12-13T01:48:21.696Z,1036.03159331
2018-12-13T01:48:34.067Z,1036.03159331
2018-12-13T01:48:46.402Z,1036.03159331
2018-12-13T01:48:58.922Z,1036.03159331
2018-12-13T01:49:11.254Z,1036.06545719
2018-12-13T01:49:23.643Z,1036.06545719
2018-12-13T01:49:35.984Z,1036.06545719
2018-12-13T01:49:48.337Z,1036.06545719
2018-12-13T01:50:00.929Z,1036.06545719
2018-12-13T01:50:13.282Z,1036.03159331
2018-12-13T01:50:25.656Z,1036.03159331
2018-12-13T01:50:38.004Z,1036.03159331
2018-12-13T01:50:50.364Z,1036.03159331
2018-12-13T01:51:02.753Z,1036.06545719
2018-12-13T01:51:15.091Z,1036.06545719
2018-12-13T01:51:27.444Z,1036.06545719
2018-12-13T01:51:39.802Z,1036.06545719
2018-12-13T01:51:52.161Z,1036.06545719
2018-12-13T01:52:04.664Z,1036.03159331
2018-12-13T01:52:17.082Z,1036.03159331
2018-12-13T01:52:29.433Z,1036.03159331
2018-12-13T01:52:41.773Z,1036.03159331
2018-12-13T01:52:54.107Z,1036.03159331
2018-12-13T01:53:06.466Z,1036.03159331
2018-12-13T01:53:18.875Z,1036.03159331
2018-12-13T01:53:31.213Z,1036.03159331
2018-12-13T01:53:43.629Z,1036.03159331
2018-12-13T01:53:55.999Z,1036.03159331
2018-12-13T01:54:08.616Z,1036.06545719
2018-12-13T01:54:20.969Z,1036.06545719
2018-12-13T01:54:33.309Z,1036.06545719
2018-12-13T01:54:45.684Z,1036.06545719
2018-12-13T01:54:58.141Z,1036.06545719
2018-12-13T01:55:10.521Z,1036.06545719
2018-12-13T01:55:22.916Z,1036.06545719
2018-12-13T01:55:35.318Z,1036.06545719
2018-12-13T01:55:47.710Z,1036.06545719
2018-12-13T01:56:00.039Z,1036.06545719
2018-12-13T01:56:12.390Z,1036.06545719
2018-12-13T01:56:24.746Z,1036.06545719
2018-12-13T01:56:37.100Z,1036.06545719
2018-12-13T01:56:49.665Z,1036.06545719
2018-12-13T01:57:02.143Z,1036.03159331
2018-12-13T01:57:14.489Z,1036.03159331
2018-12-13T01:57:26.843Z,1036.03159331
2018-12-13T01:57:39.198Z,1036.03159331
2018-12-13T01:57:51.556Z,1036.03159331
2018-12-13T01:58:04.649Z,1035.99772943
2018-12-13T01:58:17.104Z,1035.99772943
2018-12-13T01:58:29.498Z,1035.99772943
2018-12-13T01:58:41.865Z,1035.99772943
2018-12-13T01:58:54.229Z,1035.99772943
2018-12-13T01:59:06.577Z,1036.06545719
2018-12-13T01:59:18.932Z,1036.06545719
2018-12-13T01:59:31.290Z,1036.06545719
2018-12-13T01:59:43.619Z,1036.06545719
2018-12-13T01:59:55.977Z,1036.06545719
2018-12-13T02:00:08.403Z,1036.09932107
2018-12-13T02:00:20.783Z,1036.09932107
2018-12-13T02:00:33.179Z,1036.09932107
2018-12-13T02:00:45.548Z,1036.09932107
2018-12-13T02:00:57.913Z,1036.09932107
2018-12-13T02:01:10.323Z,1036.03159331
2018-12-13T02:01:22.700Z,1036.03159331
2018-12-13T02:01:35.346Z,1036.03159331
2018-12-13T02:01:47.684Z,1036.03159331
2018-12-13T02:02:00.030Z,1036.03159331
2018-12-13T02:02:12.393Z,1035.93000166
2018-12-13T02:02:24.748Z,1035.93000166
2018-12-13T02:02:37.091Z,1035.93000166
2018-12-13T02:02:49.480Z,1035.93000166
2018-12-13T02:03:01.826Z,1035.96386555
2018-12-13T02:03:14.171Z,1035.96386555
2018-12-13T02:03:26.532Z,1035.96386555
2018-12-13T02:03:38.884Z,1035.96386555
2018-12-13T02:03:51.311Z,1035.96386555
2018-12-13T02:04:03.671Z,1035.99772943
2018-12-13T02:04:16.038Z,1035.99772943
2018-12-13T02:04:28.418Z,1035.99772943
2018-12-13T02:04:40.758Z,1035.99772943
2018-12-13T02:04:53.135Z,1035.99772943
2018-12-13T02:05:05.482Z,1035.99772943
2018-12-13T02:05:17.829Z,1035.99772943
2018-12-13T02:05:30.331Z,1035.99772943
2018-12-13T02:05:42.785Z,1035.99772943
2018-12-13T02:05:55.204Z,1035.99772943
2018-12-13T02:06:07.572Z,1036.06545719
2018-12-13T02:06:19.928Z,1036.06545719
2018-12-13T02:06:32.283Z,1036.06545719
2018-12-13T02:06:44.629Z,1036.06545719
2018-12-13T02:07:03.340Z,1036.03159331
2018-12-13T02:07:15.688Z,1036.03159331
2018-12-13T02:07:28.037Z,1036.03159331
2018-12-13T02:07:40.370Z,1036.03159331
2018-12-13T02:07:52.724Z,1036.03159331